createdAt,value
2022-11-08T00:00:04.252Z,943.80
2022-11-08T00:05:03.164Z,943.86
2022-11-08T00:10:06.597Z,943.88
2022-11-08T00:15:03.112Z,943.92
2022-11-08T00:20:04.005Z,943.94
2022-11-08T00:25:03.268Z,943.94
2022-11-08T00:30:04.341Z,943.96
2022-11-08T00:35:03.188Z,943.98
2022-11-08T00:40:04.737Z,943.98
2022-11-08T00:45:03.251Z,943.98
2022-11-08T00:50:04.307Z,943.98
2022-11-08T00:55:04.147Z,944.02
2022-11-08T01:00:04.392Z,944.04
2022-11-08T01:05:03.296Z,944.04
2022-11-08T01:10:04.447Z,944.02
2022-11-08T01:15:03.185Z,944.06
2022-11-08T16:35:03.083Z,942.33
2022-11-08T16:40:04.309Z,942.29
2022-11-08T16:45:03.832Z,942.19
2022-11-08T16:50:04.481Z,942.15
2022-11-08T17:00:03.573Z,942.00
2022-11-08T17:05:03.199Z,941.92
2022-11-08T17:10:09.381Z,941.92
2022-11-08T17:15:03.070Z,941.88
2022-11-08T17:20:04.380Z,941.82
2022-11-08T17:25:03.094Z,941.66
2022-11-08T17:30:06.354Z,941.59
2022-11-08T17:35:03.090Z,941.55
2022-11-08T17:40:04.297Z,941.49
2022-11-08T17:45:03.273Z,941.45
2022-11-08T17:50:09.321Z,941.37
2022-11-08T17:55:03.371Z,941.39
2022-11-08T18:00:07.462Z,941.33
2022-11-08T18:05:03.092Z,941.29
2022-11-08T18:10:04.621Z,941.19
2022-11-08T18:15:03.206Z,941.13
2022-11-08T18:20:04.451Z,941.08
2022-11-08T18:25:03.259Z,941.08
2022-11-08T18:30:04.136Z,940.90
2022-11-08T18:35:03.208Z,940.86
2022-11-08T18:40:04.585Z,940.76
2022-11-08T18:45:03.234Z,940.74
2022-11-08T18:50:04.473Z,940.78
2022-11-08T18:55:03.215Z,940.78
2022-11-08T19:00:04.373Z,940.78
2022-11-08T19:05:03.232Z,940.78
2022-11-08T19:10:04.463Z,940.70
2022-11-08T19:15:03.223Z,940.63
2022-11-08T19:20:04.452Z,940.63
2022-11-08T19:25:03.237Z,940.51
2022-11-08T19:30:04.428Z,940.53
2022-11-08T19:35:03.247Z,940.55
2022-11-08T19:40:04.415Z,940.61
2022-11-08T19:45:03.144Z,940.61
2022-11-08T19:50:04.572Z,940.61
2022-11-08T19:55:03.222Z,940.57
2022-11-08T20:00:04.421Z,940.53
2022-11-08T20:05:03.143Z,940.53
2022-11-08T20:10:04.851Z,940.53
2022-11-08T20:15:03.192Z,940.55
2022-11-08T20:20:04.367Z,940.57
2022-11-08T20:25:03.195Z,940.55
2022-11-08T20:30:04.354Z,940.61
2022-11-08T20:35:04.131Z,940.53
2022-11-08T20:40:04.602Z,940.55
2022-11-08T20:45:03.160Z,940.63
2022-11-08T20:50:04.400Z,940.59
2022-11-08T20:55:03.297Z,940.61
2022-11-08T21:00:12.989Z,940.64
2022-11-08T21:05:03.239Z,940.70
2022-11-08T21:10:27.227Z,940.74
2022-11-08T21:15:03.133Z,940.82
2022-11-08T21:20:04.472Z,940.86
2022-11-08T21:25:03.201Z,940.90
2022-11-08T21:30:04.455Z,940.92
2022-11-08T21:35:03.302Z,940.92
2022-11-08T21:40:04.421Z,941.04
2022-11-08T21:45:03.138Z,941.09
2022-11-08T21:50:09.564Z,941.13
2022-11-08T21:55:03.152Z,941.21
2022-11-08T22:00:04.479Z,941.29
2022-11-08T22:05:03.173Z,941.31
2022-11-08T22:10:06.391Z,941.35
2022-11-08T22:15:03.136Z,941.39
2022-11-08T22:20:04.426Z,941.49
2022-11-08T22:25:03.120Z,941.51
2022-11-08T22:30:04.669Z,941.61
2022-11-08T22:35:03.258Z,941.66
2022-11-08T22:40:04.103Z,941.76
2022-11-08T22:45:03.234Z,941.82
2022-11-08T22:50:06.446Z,941.84
2022-11-08T22:55:03.130Z,941.84
2022-11-08T23:00:04.150Z,941.88
2022-11-08T23:05:03.207Z,941.90
2022-11-08T23:10:04.409Z,941.96
2022-11-08T23:15:03.261Z,942.04
2022-11-08T23:20:04.554Z,942.08
2022-11-08T23:25:03.302Z,942.10
2022-11-08T23:30:04.362Z,942.11
2022-11-08T23:35:03.191Z,942.17
2022-11-08T23:40:04.432Z,942.21
2022-11-08T23:45:03.273Z,942.19
2022-11-08T23:50:09.502Z,942.19
2022-11-08T23:55:03.212Z,942.21
